Terminal Aerodrome Forecast
Issued by NWS

Current Version | Previous Version | Text Only | Print | Product List | Glossary On
Versions: 1 2 3 4 5 6 7 8 9 10 11 12 13 14 15 16 17 18 19 20 21 22
000
FTUS43 KGRR 301136 CCA
TAFAZO
TAF COR
KAZO 301136Z 3012/3112 VRB04KT 1SM BR BKN002
      TEMPO 3012/3014 1/4SM FG VV001
     FM301400 08005KT 4SM BR SCT005 OVC015
     FM301600 20006KT P6SM BKN018
     FM302300 25008KT P6SM SKC
     FM310600 VRB03KT 4SM BR SKC
     FM311100 VRB03KT 2SM BR SKC=

USA.gov is the U.S. government's official web portal to all federal, state and local government web resources and services.